sensor_id;sensor_type;location;lat;lon;timestamp;P1;durP1;ratioP1;P2;durP2;ratioP2
78995;SDS011;68401;47.192;-1.552;2024-01-30T00:02:13;18.10;;;9.30;;
78995;SDS011;68401;47.192;-1.552;2024-01-30T00:04:39;15.63;;;9.50;;
78995;SDS011;68401;47.192;-1.552;2024-01-30T00:07:04;13.85;;;8.75;;
78995;SDS011;68401;47.192;-1.552;2024-01-30T00:09:30;18.48;;;9.55;;
78995;SDS011;68401;47.192;-1.552;2024-01-30T00:11:56;16.15;;;9.90;;
78995;SDS011;68401;47.192;-1.552;2024-01-30T00:14:22;20.60;;;10.68;;
78995;SDS011;68401;47.192;-1.552;2024-01-30T00:16:48;16.50;;;10.18;;
78995;SDS011;68401;47.192;-1.552;2024-01-30T00:19:13;15.10;;;9.23;;
78995;SDS011;68401;47.192;-1.552;2024-01-30T00:21:39;19.33;;;9.45;;
78995;SDS011;68401;47.192;-1.552;2024-01-30T00:24:07;16.40;;;8.75;;
78995;SDS011;68401;47.192;-1.552;2024-01-30T00:26:33;13.75;;;8.95;;
78995;SDS011;68401;47.192;-1.552;2024-01-30T00:28:58;17.15;;;10.27;;
78995;SDS011;68401;47.192;-1.552;2024-01-30T00:31:24;17.15;;;9.13;;
78995;SDS011;68401;47.192;-1.552;2024-01-30T00:33:49;18.90;;;9.77;;
78995;SDS011;68401;47.192;-1.552;2024-01-30T00:36:15;15.43;;;9.10;;
78995;SDS011;68401;47.192;-1.552;2024-01-30T00:38:41;20.15;;;9.90;;
78995;SDS011;68401;47.192;-1.552;2024-01-30T00:41:07;18.05;;;9.25;;
78995;SDS011;68401;47.192;-1.552;2024-01-30T00:43:34;13.75;;;8.98;;
78995;SDS011;68401;47.192;-1.552;2024-01-30T00:46:00;19.15;;;10.02;;
78995;SDS011;68401;47.192;-1.552;2024-01-30T00:48:25;18.83;;;10.40;;
78995;SDS011;68401;47.192;-1.552;2024-01-30T00:50:51;23.20;;;11.18;;
78995;SDS011;68401;47.192;-1.552;2024-01-30T00:53:16;21.02;;;9.55;;
78995;SDS011;68401;47.192;-1.552;2024-01-30T00:55:43;15.40;;;9.82;;
78995;SDS011;68401;47.192;-1.552;2024-01-30T00:58:08;17.02;;;10.63;;
78995;SDS011;68401;47.192;-1.552;2024-01-30T01:00:34;16.98;;;9.55;;
78995;SDS011;68401;47.192;-1.552;2024-01-30T01:02:59;14.15;;;9.20;;
78995;SDS011;68401;47.192;-1.552;2024-01-30T01:05:25;15.60;;;9.15;;
78995;SDS011;68401;47.192;-1.552;2024-01-30T01:07:51;12.00;;;9.10;;
78995;SDS011;68401;47.192;-1.552;2024-01-30T01:10:16;17.65;;;9.98;;
78995;SDS011;68401;47.192;-1.552;2024-01-30T01:12:50;16.30;;;9.32;;
78995;SDS011;68401;47.192;-1.552;2024-01-30T01:15:16;16.95;;;9.38;;
78995;SDS011;68401;47.192;-1.552;2024-01-30T01:17:41;16.98;;;9.10;;
78995;SDS011;68401;47.192;-1.552;2024-01-30T01:20:07;15.15;;;8.63;;
78995;SDS011;68401;47.192;-1.552;2024-01-30T01:22:39;19.13;;;9.85;;
78995;SDS011;68401;47.192;-1.552;2024-01-30T01:25:11;20.98;;;10.90;;
78995;SDS011;68401;47.192;-1.552;2024-01-30T01:27:37;13.57;;;9.57;;
78995;SDS011;68401;47.192;-1.552;2024-01-30T01:30:09;16.10;;;9.50;;
78995;SDS011;68401;47.192;-1.552;2024-01-30T01:32:36;15.27;;;9.63;;
78995;SDS011;68401;47.192;-1.552;2024-01-30T01:35:01;15.35;;;9.50;;
78995;SDS011;68401;47.192;-1.552;2024-01-30T01:37:27;14.05;;;9.68;;
78995;SDS011;68401;47.192;-1.552;2024-01-30T01:39:53;12.85;;;8.68;;
78995;SDS011;68401;47.192;-1.552;2024-01-30T01:42:18;16.48;;;9.38;;
78995;SDS011;68401;47.192;-1.552;2024-01-30T01:44:44;19.23;;;9.18;;
78995;SDS011;68401;47.192;-1.552;2024-01-30T01:47:09;19.65;;;9.68;;
78995;SDS011;68401;47.192;-1.552;2024-01-30T01:49:35;13.70;;;9.05;;
78995;SDS011;68401;47.192;-1.552;2024-01-30T01:52:01;14.65;;;8.77;;
78995;SDS011;68401;47.192;-1.552;2024-01-30T01:54:26;14.38;;;9.20;;
78995;SDS011;68401;47.192;-1.552;2024-01-30T01:56:53;15.52;;;10.10;;
78995;SDS011;68401;47.192;-1.552;2024-01-30T01:59:19;15.52;;;9.77;;
78995;SDS011;68401;47.192;-1.552;2024-01-30T02:01:45;17.83;;;10.18;;
78995;SDS011;68401;47.192;-1.552;2024-01-30T02:04:14;22.50;;;10.13;;
78995;SDS011;68401;47.192;-1.552;2024-01-30T02:06:39;17.42;;;10.15;;
78995;SDS011;68401;47.192;-1.552;2024-01-30T02:09:05;19.92;;;10.68;;
78995;SDS011;68401;47.192;-1.552;2024-01-30T02:11:30;21.40;;;9.35;;
78995;SDS011;68401;47.192;-1.552;2024-01-30T02:13:57;15.68;;;9.10;;
78995;SDS011;68401;47.192;-1.552;2024-01-30T02:16:23;19.52;;;9.57;;
78995;SDS011;68401;47.192;-1.552;2024-01-30T02:18:48;17.92;;;10.60;;
78995;SDS011;68401;47.192;-1.552;2024-01-30T02:21:15;17.73;;;9.27;;
78995;SDS011;68401;47.192;-1.552;2024-01-30T02:23:41;14.25;;;8.95;;
78995;SDS011;68401;47.192;-1.552;2024-01-30T02:26:08;12.02;;;9.05;;
78995;SDS011;68401;47.192;-1.552;2024-01-30T02:28:33;19.23;;;9.10;;
78995;SDS011;68401;47.192;-1.552;2024-01-30T02:30:59;16.75;;;8.57;;
78995;SDS011;68401;47.192;-1.552;2024-01-30T02:33:24;17.52;;;9.68;;
78995;SDS011;68401;47.192;-1.552;2024-01-30T02:35:50;18.30;;;9.45;;
78995;SDS011;68401;47.192;-1.552;2024-01-30T02:38:15;17.40;;;9.02;;
78995;SDS011;68401;47.192;-1.552;2024-01-30T02:40:41;16.45;;;8.45;;
78995;SDS011;68401;47.192;-1.552;2024-01-30T02:43:07;13.18;;;8.65;;
78995;SDS011;68401;47.192;-1.552;2024-01-30T02:45:32;16.23;;;9.05;;
78995;SDS011;68401;47.192;-1.552;2024-01-30T02:47:58;14.40;;;9.15;;
78995;SDS011;68401;47.192;-1.552;2024-01-30T02:50:23;16.65;;;8.77;;
78995;SDS011;68401;47.192;-1.552;2024-01-30T02:52:49;16.77;;;8.40;;
78995;SDS011;68401;47.192;-1.552;2024-01-30T02:55:14;19.23;;;9.75;;
78995;SDS011;68401;47.192;-1.552;2024-01-30T02:57:42;12.73;;;7.60;;
78995;SDS011;68401;47.192;-1.552;2024-01-30T03:00:08;15.63;;;8.43;;
78995;SDS011;68401;47.192;-1.552;2024-01-30T03:02:34;19.38;;;9.85;;
78995;SDS011;68401;47.192;-1.552;2024-01-30T03:05:00;15.75;;;8.77;;
78995;SDS011;68401;47.192;-1.552;2024-01-30T03:07:26;17.45;;;7.70;;
78995;SDS011;68401;47.192;-1.552;2024-01-30T03:09:51;15.55;;;9.32;;
78995;SDS011;68401;47.192;-1.552;2024-01-30T03:12:17;15.48;;;8.05;;
78995;SDS011;68401;47.192;-1.552;2024-01-30T03:14:46;17.35;;;8.68;;
78995;SDS011;68401;47.192;-1.552;2024-01-30T03:17:11;18.85;;;9.57;;
78995;SDS011;68401;47.192;-1.552;2024-01-30T03:19:37;17.42;;;8.55;;
78995;SDS011;68401;47.192;-1.552;2024-01-30T03:22:05;15.68;;;8.65;;
78995;SDS011;68401;47.192;-1.552;2024-01-30T03:24:31;14.85;;;8.05;;
78995;SDS011;68401;47.192;-1.552;2024-01-30T03:27:03;17.30;;;9.23;;
78995;SDS011;68401;47.192;-1.552;2024-01-30T03:29:28;17.90;;;7.65;;
78995;SDS011;68401;47.192;-1.552;2024-01-30T03:31:54;16.38;;;9.77;;
78995;SDS011;68401;47.192;-1.552;2024-01-30T03:34:19;15.63;;;7.85;;
78995;SDS011;68401;47.192;-1.552;2024-01-30T03:36:45;26.88;;;9.68;;
78995;SDS011;68401;47.192;-1.552;2024-01-30T03:39:10;22.73;;;9.73;;
78995;SDS011;68401;47.192;-1.552;2024-01-30T03:41:36;17.88;;;8.20;;
78995;SDS011;68401;47.192;-1.552;2024-01-30T03:44:01;14.60;;;8.25;;
78995;SDS011;68401;47.192;-1.552;2024-01-30T03:46:27;15.18;;;7.80;;
78995;SDS011;68401;47.192;-1.552;2024-01-30T03:48:53;18.20;;;10.45;;
78995;SDS011;68401;47.192;-1.552;2024-01-30T03:51:18;13.52;;;7.72;;
78995;SDS011;68401;47.192;-1.552;2024-01-30T03:53:44;19.10;;;8.73;;
78995;SDS011;68401;47.192;-1.552;2024-01-30T03:56:11;14.68;;;7.78;;
78995;SDS011;68401;47.192;-1.552;2024-01-30T03:58:38;15.32;;;7.47;;
78995;SDS011;68401;47.192;-1.552;2024-01-30T04:01:04;17.60;;;8.20;;
78995;SDS011;68401;47.192;-1.552;2024-01-30T04:03:29;18.02;;;7.55;;
78995;SDS011;68401;47.192;-1.552;2024-01-30T04:05:55;22.55;;;7.97;;
78995;SDS011;68401;47.192;-1.552;2024-01-30T04:08:20;12.65;;;6.65;;
78995;SDS011;68401;47.192;-1.552;2024-01-30T04:10:46;11.80;;;5.97;;
78995;SDS011;68401;47.192;-1.552;2024-01-30T04:13:14;17.45;;;6.68;;
78995;SDS011;68401;47.192;-1.552;2024-01-30T04:15:39;10.57;;;6.30;;
78995;SDS011;68401;47.192;-1.552;2024-01-30T04:18:05;9.68;;;5.07;;
78995;SDS011;68401;47.192;-1.552;2024-01-30T04:20:30;9.38;;;4.50;;
78995;SDS011;68401;47.192;-1.552;2024-01-30T04:22:56;10.18;;;5.65;;
78995;SDS011;68401;47.192;-1.552;2024-01-30T04:25:22;11.23;;;6.32;;
78995;SDS011;68401;47.192;-1.552;2024-01-30T04:27:47;11.95;;;6.22;;
78995;SDS011;68401;47.192;-1.552;2024-01-30T04:30:13;9.45;;;5.03;;
78995;SDS011;68401;47.192;-1.552;2024-01-30T04:32:39;11.68;;;5.07;;
78995;SDS011;68401;47.192;-1.552;2024-01-30T04:35:04;14.15;;;5.95;;
78995;SDS011;68401;47.192;-1.552;2024-01-30T04:37:30;10.88;;;5.50;;
78995;SDS011;68401;47.192;-1.552;2024-01-30T04:39:56;14.18;;;4.95;;
78995;SDS011;68401;47.192;-1.552;2024-01-30T04:42:21;11.45;;;5.70;;
78995;SDS011;68401;47.192;-1.552;2024-01-30T04:44:47;12.30;;;5.47;;
78995;SDS011;68401;47.192;-1.552;2024-01-30T04:47:13;12.70;;;5.13;;
78995;SDS011;68401;47.192;-1.552;2024-01-30T04:49:38;10.30;;;4.85;;
78995;SDS011;68401;47.192;-1.552;2024-01-30T04:52:07;10.82;;;5.35;;
78995;SDS011;68401;47.192;-1.552;2024-01-30T04:54:33;14.43;;;5.07;;
78995;SDS011;68401;47.192;-1.552;2024-01-30T04:56:59;14.32;;;5.60;;
78995;SDS011;68401;47.192;-1.552;2024-01-30T04:59:25;9.75;;;4.30;;
78995;SDS011;68401;47.192;-1.552;2024-01-30T05:01:50;8.50;;;3.90;;
78995;SDS011;68401;47.192;-1.552;2024-01-30T05:04:16;9.70;;;4.28;;
78995;SDS011;68401;47.192;-1.552;2024-01-30T05:06:41;11.45;;;4.55;;
78995;SDS011;68401;47.192;-1.552;2024-01-30T05:09:07;11.40;;;3.92;;
78995;SDS011;68401;47.192;-1.552;2024-01-30T05:11:40;6.82;;;3.85;;
78995;SDS011;68401;47.192;-1.552;2024-01-30T05:14:06;11.90;;;8.07;;
78995;SDS011;68401;47.192;-1.552;2024-01-30T05:16:33;10.85;;;8.77;;
78995;SDS011;68401;47.192;-1.552;2024-01-30T05:18:59;14.77;;;13.38;;
78995;SDS011;68401;47.192;-1.552;2024-01-30T05:21:24;11.60;;;9.05;;
78995;SDS011;68401;47.192;-1.552;2024-01-30T05:23:50;8.30;;;6.25;;
78995;SDS011;68401;47.192;-1.552;2024-01-30T05:26:16;11.50;;;5.88;;
78995;SDS011;68401;47.192;-1.552;2024-01-30T05:28:41;9.57;;;7.93;;
78995;SDS011;68401;47.192;-1.552;2024-01-30T05:31:09;9.68;;;4.22;;
78995;SDS011;68401;47.192;-1.552;2024-01-30T05:33:35;8.38;;;5.72;;
78995;SDS011;68401;47.192;-1.552;2024-01-30T05:36:00;6.00;;;5.40;;
78995;SDS011;68401;47.192;-1.552;2024-01-30T05:38:26;6.68;;;3.58;;
78995;SDS011;68401;47.192;-1.552;2024-01-30T05:40:51;6.68;;;3.90;;
78995;SDS011;68401;47.192;-1.552;2024-01-30T05:43:17;6.43;;;3.08;;
78995;SDS011;68401;47.192;-1.552;2024-01-30T05:45:42;6.70;;;2.90;;
78995;SDS011;68401;47.192;-1.552;2024-01-30T05:48:08;4.82;;;2.63;;
78995;SDS011;68401;47.192;-1.552;2024-01-30T05:50:33;6.05;;;3.20;;
78995;SDS011;68401;47.192;-1.552;2024-01-30T05:52:58;10.18;;;9.23;;
78995;SDS011;68401;47.192;-1.552;2024-01-30T05:55:24;14.57;;;13.38;;
78995;SDS011;68401;47.192;-1.552;2024-01-30T05:57:49;7.95;;;2.95;;
78995;SDS011;68401;47.192;-1.552;2024-01-30T06:00:18;4.60;;;2.70;;
78995;SDS011;68401;47.192;-1.552;2024-01-30T06:02:44;4.85;;;2.30;;
78995;SDS011;68401;47.192;-1.552;2024-01-30T06:05:09;4.97;;;3.28;;
78995;SDS011;68401;47.192;-1.552;2024-01-30T06:07:35;6.65;;;6.00;;
78995;SDS011;68401;47.192;-1.552;2024-01-30T06:10:00;6.50;;;3.95;;
78995;SDS011;68401;47.192;-1.552;2024-01-30T06:12:27;9.52;;;3.72;;
78995;SDS011;68401;47.192;-1.552;2024-01-30T06:14:53;7.85;;;3.90;;
78995;SDS011;68401;47.192;-1.552;2024-01-30T06:17:21;6.85;;;3.60;;
78995;SDS011;68401;47.192;-1.552;2024-01-30T06:19:47;7.82;;;3.38;;
78995;SDS011;68401;47.192;-1.552;2024-01-30T06:22:13;6.05;;;4.25;;
78995;SDS011;68401;47.192;-1.552;2024-01-30T06:24:38;7.45;;;3.55;;
78995;SDS011;68401;47.192;-1.552;2024-01-30T06:27:04;6.38;;;2.78;;
78995;SDS011;68401;47.192;-1.552;2024-01-30T06:29:29;8.40;;;5.10;;
78995;SDS011;68401;47.192;-1.552;2024-01-30T06:31:55;7.72;;;4.47;;
78995;SDS011;68401;47.192;-1.552;2024-01-30T06:34:21;6.80;;;2.83;;
78995;SDS011;68401;47.192;-1.552;2024-01-30T06:36:46;3.67;;;2.20;;
78995;SDS011;68401;47.192;-1.552;2024-01-30T06:39:12;3.88;;;2.08;;
78995;SDS011;68401;47.192;-1.552;2024-01-30T06:41:37;3.78;;;2.22;;
78995;SDS011;68401;47.192;-1.552;2024-01-30T06:44:03;5.63;;;2.25;;
78995;SDS011;68401;47.192;-1.552;2024-01-30T06:46:33;5.32;;;2.45;;
78995;SDS011;68401;47.192;-1.552;2024-01-30T06:48:59;3.65;;;1.90;;
78995;SDS011;68401;47.192;-1.552;2024-01-30T06:51:24;3.10;;;1.83;;
78995;SDS011;68401;47.192;-1.552;2024-01-30T06:53:50;4.63;;;1.60;;
78995;SDS011;68401;47.192;-1.552;2024-01-30T06:56:15;3.97;;;1.60;;
78995;SDS011;68401;47.192;-1.552;2024-01-30T06:58:45;2.80;;;1.60;;
78995;SDS011;68401;47.192;-1.552;2024-01-30T07:03:39;2.13;;;1.65;;
78995;SDS011;68401;47.192;-1.552;2024-01-30T07:06:05;3.40;;;1.50;;
78995;SDS011;68401;47.192;-1.552;2024-01-30T07:08:30;3.67;;;1.20;;
78995;SDS011;68401;47.192;-1.552;2024-01-30T07:10:56;2.85;;;1.20;;
78995;SDS011;68401;47.192;-1.552;2024-01-30T07:13:22;3.60;;;1.42;;
78995;SDS011;68401;47.192;-1.552;2024-01-30T07:15:47;8.80;;;4.03;;
78995;SDS011;68401;47.192;-1.552;2024-01-30T07:18:12;5.10;;;2.28;;
78995;SDS011;68401;47.192;-1.552;2024-01-30T07:20:38;11.32;;;4.10;;
78995;SDS011;68401;47.192;-1.552;2024-01-30T07:23:22;9.68;;;3.75;;
78995;SDS011;68401;47.192;-1.552;2024-01-30T07:25:48;13.75;;;7.15;;
78995;SDS011;68401;47.192;-1.552;2024-01-30T07:28:16;7.07;;;3.40;;
78995;SDS011;68401;47.192;-1.552;2024-01-30T07:30:42;3.88;;;1.73;;
78995;SDS011;68401;47.192;-1.552;2024-01-30T07:33:08;8.05;;;1.65;;
78995;SDS011;68401;47.192;-1.552;2024-01-30T07:35:34;4.13;;;1.60;;
78995;SDS011;68401;47.192;-1.552;2024-01-30T07:38:00;3.28;;;1.30;;
78995;SDS011;68401;47.192;-1.552;2024-01-30T07:40:28;4.47;;;1.70;;
78995;SDS011;68401;47.192;-1.552;2024-01-30T07:42:55;3.08;;;1.73;;
78995;SDS011;68401;47.192;-1.552;2024-01-30T07:45:21;3.10;;;1.92;;
78995;SDS011;68401;47.192;-1.552;2024-01-30T07:47:50;3.63;;;1.92;;
78995;SDS011;68401;47.192;-1.552;2024-01-30T07:50:16;5.75;;;1.73;;
78995;SDS011;68401;47.192;-1.552;2024-01-30T07:52:42;3.97;;;2.17;;
78995;SDS011;68401;47.192;-1.552;2024-01-30T07:55:08;4.70;;;1.98;;
78995;SDS011;68401;47.192;-1.552;2024-01-30T07:57:33;3.78;;;2.03;;
78995;SDS011;68401;47.192;-1.552;2024-01-30T08:00:02;4.38;;;2.20;;
78995;SDS011;68401;47.192;-1.552;2024-01-30T08:02:30;11.57;;;3.35;;
78995;SDS011;68401;47.192;-1.552;2024-01-30T08:04:58;17.90;;;7.03;;
78995;SDS011;68401;47.192;-1.552;2024-01-30T08:07:28;18.10;;;7.60;;
78995;SDS011;68401;47.192;-1.552;2024-01-30T08:10:01;9.98;;;5.10;;
78995;SDS011;68401;47.192;-1.552;2024-01-30T08:12:28;5.50;;;2.83;;
78995;SDS011;68401;47.192;-1.552;2024-01-30T08:14:54;4.43;;;2.60;;
78995;SDS011;68401;47.192;-1.552;2024-01-30T08:17:19;6.60;;;2.33;;
78995;SDS011;68401;47.192;-1.552;2024-01-30T08:19:45;3.17;;;2.00;;
78995;SDS011;68401;47.192;-1.552;2024-01-30T08:22:11;3.47;;;2.35;;
78995;SDS011;68401;47.192;-1.552;2024-01-30T08:24:37;6.13;;;2.70;;
78995;SDS011;68401;47.192;-1.552;2024-01-30T08:27:03;6.25;;;2.55;;
78995;SDS011;68401;47.192;-1.552;2024-01-30T08:29:30;3.55;;;2.83;;
78995;SDS011;68401;47.192;-1.552;2024-01-30T08:31:55;3.90;;;2.58;;
78995;SDS011;68401;47.192;-1.552;2024-01-30T08:34:21;3.53;;;2.50;;
78995;SDS011;68401;47.192;-1.552;2024-01-30T08:36:46;3.92;;;2.47;;
78995;SDS011;68401;47.192;-1.552;2024-01-30T08:39:12;5.40;;;2.30;;
78995;SDS011;68401;47.192;-1.552;2024-01-30T08:41:37;5.10;;;2.65;;
78995;SDS011;68401;47.192;-1.552;2024-01-30T08:44:13;5.95;;;3.03;;
78995;SDS011;68401;47.192;-1.552;2024-01-30T08:46:38;4.30;;;2.53;;
78995;SDS011;68401;47.192;-1.552;2024-01-30T08:49:04;5.18;;;2.80;;
78995;SDS011;68401;47.192;-1.552;2024-01-30T08:51:30;5.60;;;2.85;;
78995;SDS011;68401;47.192;-1.552;2024-01-30T08:53:55;6.35;;;2.80;;
78995;SDS011;68401;47.192;-1.552;2024-01-30T08:56:21;3.45;;;2.55;;
78995;SDS011;68401;47.192;-1.552;2024-01-30T08:58:47;3.83;;;2.53;;
78995;SDS011;68401;47.192;-1.552;2024-01-30T09:01:12;6.40;;;3.15;;
78995;SDS011;68401;47.192;-1.552;2024-01-30T09:03:38;3.13;;;2.63;;
78995;SDS011;68401;47.192;-1.552;2024-01-30T09:06:08;4.63;;;2.55;;
78995;SDS011;68401;47.192;-1.552;2024-01-30T09:08:34;4.63;;;2.70;;
78995;SDS011;68401;47.192;-1.552;2024-01-30T09:10:59;4.82;;;2.97;;
78995;SDS011;68401;47.192;-1.552;2024-01-30T09:13:25;5.60;;;3.47;;
78995;SDS011;68401;47.192;-1.552;2024-01-30T09:15:50;9.30;;;2.92;;
78995;SDS011;68401;47.192;-1.552;2024-01-30T09:18:16;8.93;;;3.80;;
78995;SDS011;68401;47.192;-1.552;2024-01-30T09:20:41;7.03;;;4.15;;
78995;SDS011;68401;47.192;-1.552;2024-01-30T09:23:12;3.65;;;2.53;;
78995;SDS011;68401;47.192;-1.552;2024-01-30T09:25:44;4.88;;;2.13;;
78995;SDS011;68401;47.192;-1.552;2024-01-30T09:28:10;5.35;;;2.33;;
78995;SDS011;68401;47.192;-1.552;2024-01-30T09:30:36;3.03;;;2.15;;
78995;SDS011;68401;47.192;-1.552;2024-01-30T09:33:01;4.75;;;2.03;;
78995;SDS011;68401;47.192;-1.552;2024-01-30T09:35:26;3.22;;;2.00;;
78995;SDS011;68401;47.192;-1.552;2024-01-30T09:37:52;3.90;;;2.42;;
78995;SDS011;68401;47.192;-1.552;2024-01-30T09:40:18;4.18;;;2.40;;
78995;SDS011;68401;47.192;-1.552;2024-01-30T09:42:46;6.55;;;2.10;;
78995;SDS011;68401;47.192;-1.552;2024-01-30T09:45:14;2.28;;;1.40;;
78995;SDS011;68401;47.192;-1.552;2024-01-30T09:47:43;5.85;;;1.88;;
78995;SDS011;68401;47.192;-1.552;2024-01-30T09:50:11;2.90;;;1.73;;
78995;SDS011;68401;47.192;-1.552;2024-01-30T09:52:37;3.28;;;1.73;;
78995;SDS011;68401;47.192;-1.552;2024-01-30T09:55:03;4.03;;;2.17;;
78995;SDS011;68401;47.192;-1.552;2024-01-30T09:57:29;4.55;;;1.65;;
78995;SDS011;68401;47.192;-1.552;2024-01-30T09:59:55;3.17;;;2.03;;
78995;SDS011;68401;47.192;-1.552;2024-01-30T10:02:20;6.10;;;1.70;;
78995;SDS011;68401;47.192;-1.552;2024-01-30T10:04:50;3.85;;;1.80;;
78995;SDS011;68401;47.192;-1.552;2024-01-30T10:07:16;2.67;;;1.70;;
78995;SDS011;68401;47.192;-1.552;2024-01-30T10:09:43;3.55;;;1.73;;
78995;SDS011;68401;47.192;-1.552;2024-01-30T10:12:08;3.53;;;1.65;;
78995;SDS011;68401;47.192;-1.552;2024-01-30T10:14:37;2.50;;;1.48;;
78995;SDS011;68401;47.192;-1.552;2024-01-30T10:17:09;3.53;;;1.50;;
78995;SDS011;68401;47.192;-1.552;2024-01-30T10:19:36;4.38;;;1.55;;
78995;SDS011;68401;47.192;-1.552;2024-01-30T10:22:03;6.15;;;2.10;;
78995;SDS011;68401;47.192;-1.552;2024-01-30T10:24:29;4.50;;;1.50;;
78995;SDS011;68401;47.192;-1.552;2024-01-30T10:26:55;3.08;;;1.55;;
78995;SDS011;68401;47.192;-1.552;2024-01-30T10:29:20;4.32;;;2.03;;
78995;SDS011;68401;47.192;-1.552;2024-01-30T10:31:56;6.63;;;1.70;;
78995;SDS011;68401;47.192;-1.552;2024-01-30T10:34:28;5.80;;;1.80;;
78995;SDS011;68401;47.192;-1.552;2024-01-30T10:36:58;13.55;;;2.70;;
78995;SDS011;68401;47.192;-1.552;2024-01-30T10:39:28;2.80;;;1.60;;
78995;SDS011;68401;47.192;-1.552;2024-01-30T10:41:55;2.95;;;1.50;;
78995;SDS011;68401;47.192;-1.552;2024-01-30T10:44:22;2.90;;;1.63;;
78995;SDS011;68401;47.192;-1.552;2024-01-30T10:46:49;4.50;;;1.73;;
78995;SDS011;68401;47.192;-1.552;2024-01-30T10:49:18;3.95;;;1.58;;
78995;SDS011;68401;47.192;-1.552;2024-01-30T10:51:44;3.42;;;1.38;;
78995;SDS011;68401;47.192;-1.552;2024-01-30T10:54:10;4.35;;;1.60;;
78995;SDS011;68401;47.192;-1.552;2024-01-30T10:56:36;6.95;;;1.90;;
78995;SDS011;68401;47.192;-1.552;2024-01-30T10:59:10;2.42;;;1.45;;
78995;SDS011;68401;47.192;-1.552;2024-01-30T11:01:36;2.72;;;1.45;;
78995;SDS011;68401;47.192;-1.552;2024-01-30T11:04:02;4.35;;;2.40;;
78995;SDS011;68401;47.192;-1.552;2024-01-30T11:06:28;2.90;;;1.52;;
78995;SDS011;68401;47.192;-1.552;2024-01-30T11:09:00;4.68;;;2.60;;
78995;SDS011;68401;47.192;-1.552;2024-01-30T11:11:29;2.17;;;1.38;;
78995;SDS011;68401;47.192;-1.552;2024-01-30T11:13:54;3.95;;;1.70;;
78995;SDS011;68401;47.192;-1.552;2024-01-30T11:16:20;2.45;;;1.30;;
78995;SDS011;68401;47.192;-1.552;2024-01-30T11:18:49;4.00;;;2.97;;
78995;SDS011;68401;47.192;-1.552;2024-01-30T11:21:16;2.88;;;1.52;;
78995;SDS011;68401;47.192;-1.552;2024-01-30T11:23:42;2.90;;;1.33;;
78995;SDS011;68401;47.192;-1.552;2024-01-30T11:26:09;8.85;;;7.30;;
78995;SDS011;68401;47.192;-1.552;2024-01-30T11:28:35;2.38;;;1.30;;
78995;SDS011;68401;47.192;-1.552;2024-01-30T11:31:03;4.63;;;2.10;;
78995;SDS011;68401;47.192;-1.552;2024-01-30T11:33:30;2.28;;;1.63;;
78995;SDS011;68401;47.192;-1.552;2024-01-30T11:35:56;3.88;;;1.88;;
78995;SDS011;68401;47.192;-1.552;2024-01-30T11:38:22;6.15;;;2.08;;
78995;SDS011;68401;47.192;-1.552;2024-01-30T11:40:48;3.78;;;1.15;;
78995;SDS011;68401;47.192;-1.552;2024-01-30T11:43:15;2.83;;;1.42;;
78995;SDS011;68401;47.192;-1.552;2024-01-30T11:45:41;4.47;;;1.25;;
78995;SDS011;68401;47.192;-1.552;2024-01-30T11:48:08;3.72;;;1.20;;
78995;SDS011;68401;47.192;-1.552;2024-01-30T11:50:35;3.92;;;1.85;;
78995;SDS011;68401;47.192;-1.552;2024-01-30T11:53:03;1.70;;;1.17;;
78995;SDS011;68401;47.192;-1.552;2024-01-30T11:55:29;3.83;;;1.30;;
78995;SDS011;68401;47.192;-1.552;2024-01-30T11:57:56;2.05;;;0.93;;
78995;SDS011;68401;47.192;-1.552;2024-01-30T12:00:22;3.00;;;1.38;;
78995;SDS011;68401;47.192;-1.552;2024-01-30T12:02:51;2.17;;;1.13;;
78995;SDS011;68401;47.192;-1.552;2024-01-30T12:05:20;3.08;;;1.30;;
78995;SDS011;68401;47.192;-1.552;2024-01-30T12:07:46;3.35;;;1.30;;
78995;SDS011;68401;47.192;-1.552;2024-01-30T12:10:12;3.13;;;1.17;;
78995;SDS011;68401;47.192;-1.552;2024-01-30T12:12:39;3.10;;;1.27;;
78995;SDS011;68401;47.192;-1.552;2024-01-30T12:15:05;4.15;;;1.25;;
78995;SDS011;68401;47.192;-1.552;2024-01-30T12:17:31;2.10;;;1.50;;
78995;SDS011;68401;47.192;-1.552;2024-01-30T12:20:04;2.60;;;1.33;;
78995;SDS011;68401;47.192;-1.552;2024-01-30T12:22:40;4.45;;;1.50;;
78995;SDS011;68401;47.192;-1.552;2024-01-30T12:25:16;4.63;;;1.60;;
78995;SDS011;68401;47.192;-1.552;2024-01-30T12:27:44;3.70;;;2.00;;
78995;SDS011;68401;47.192;-1.552;2024-01-30T12:30:11;4.20;;;1.27;;
78995;SDS011;68401;47.192;-1.552;2024-01-30T12:32:41;2.05;;;0.90;;
78995;SDS011;68401;47.192;-1.552;2024-01-30T12:35:14;1.48;;;0.90;;
78995;SDS011;68401;47.192;-1.552;2024-01-30T12:37:40;1.70;;;1.10;;
78995;SDS011;68401;47.192;-1.552;2024-01-30T12:40:10;1.52;;;1.30;;
78995;SDS011;68401;47.192;-1.552;2024-01-30T12:42:43;1.60;;;1.20;;
78995;SDS011;68401;47.192;-1.552;2024-01-30T12:45:13;2.00;;;0.90;;
78995;SDS011;68401;47.192;-1.552;2024-01-30T12:47:40;5.38;;;1.77;;
78995;SDS011;68401;47.192;-1.552;2024-01-30T12:50:09;1.98;;;1.10;;
78995;SDS011;68401;47.192;-1.552;2024-01-30T12:52:35;1.83;;;0.88;;
78995;SDS011;68401;47.192;-1.552;2024-01-30T12:55:11;3.83;;;1.30;;
78995;SDS011;68401;47.192;-1.552;2024-01-30T12:57:38;1.55;;;1.00;;
78995;SDS011;68401;47.192;-1.552;2024-01-30T13:00:04;1.70;;;0.93;;
78995;SDS011;68401;47.192;-1.552;2024-01-30T13:02:33;1.77;;;1.13;;
78995;SDS011;68401;47.192;-1.552;2024-01-30T13:05:02;1.40;;;0.93;;
78995;SDS011;68401;47.192;-1.552;2024-01-30T13:07:30;2.70;;;0.90;;
78995;SDS011;68401;47.192;-1.552;2024-01-30T13:09:59;2.47;;;1.20;;
78995;SDS011;68401;47.192;-1.552;2024-01-30T13:12:28;1.88;;;1.27;;
78995;SDS011;68401;47.192;-1.552;2024-01-30T13:14:57;2.42;;;1.10;;
78995;SDS011;68401;47.192;-1.552;2024-01-30T13:17:26;2.25;;;1.10;;
78995;SDS011;68401;47.192;-1.552;2024-01-30T13:19:51;1.88;;;0.75;;
78995;SDS011;68401;47.192;-1.552;2024-01-30T13:22:19;2.63;;;1.38;;
78995;SDS011;68401;47.192;-1.552;2024-01-30T13:24:48;1.17;;;0.88;;
78995;SDS011;68401;47.192;-1.552;2024-01-30T13:27:13;1.70;;;1.00;;
78995;SDS011;68401;47.192;-1.552;2024-01-30T13:29:39;2.85;;;1.10;;
78995;SDS011;68401;47.192;-1.552;2024-01-30T13:32:04;2.72;;;1.52;;
78995;SDS011;68401;47.192;-1.552;2024-01-30T13:34:30;0.95;;;0.82;;
78995;SDS011;68401;47.192;-1.552;2024-01-30T13:36:56;2.53;;;1.00;;
78995;SDS011;68401;47.192;-1.552;2024-01-30T13:39:21;1.77;;;1.27;;
78995;SDS011;68401;47.192;-1.552;2024-01-30T13:41:47;1.80;;;0.93;;
78995;SDS011;68401;47.192;-1.552;2024-01-30T13:44:13;2.42;;;1.00;;
78995;SDS011;68401;47.192;-1.552;2024-01-30T13:46:42;3.22;;;1.27;;
78995;SDS011;68401;47.192;-1.552;2024-01-30T13:49:08;3.47;;;1.83;;
78995;SDS011;68401;47.192;-1.552;2024-01-30T13:51:33;3.28;;;1.50;;
78995;SDS011;68401;47.192;-1.552;2024-01-30T13:53:59;2.05;;;1.52;;
78995;SDS011;68401;47.192;-1.552;2024-01-30T13:56:24;3.03;;;1.77;;
78995;SDS011;68401;47.192;-1.552;2024-01-30T13:58:51;2.58;;;1.33;;
78995;SDS011;68401;47.192;-1.552;2024-01-30T14:01:24;2.10;;;0.95;;
78995;SDS011;68401;47.192;-1.552;2024-01-30T14:03:50;2.13;;;1.40;;
78995;SDS011;68401;47.192;-1.552;2024-01-30T14:06:22;2.78;;;1.25;;
78995;SDS011;68401;47.192;-1.552;2024-01-30T14:08:47;3.45;;;1.13;;
78995;SDS011;68401;47.192;-1.552;2024-01-30T14:11:13;3.03;;;1.30;;
78995;SDS011;68401;47.192;-1.552;2024-01-30T14:13:38;3.28;;;1.20;;
78995;SDS011;68401;47.192;-1.552;2024-01-30T14:16:04;2.75;;;1.52;;
78995;SDS011;68401;47.192;-1.552;2024-01-30T14:18:31;2.70;;;1.30;;
78995;SDS011;68401;47.192;-1.552;2024-01-30T14:20:57;3.28;;;1.40;;
78995;SDS011;68401;47.192;-1.552;2024-01-30T14:23:23;3.10;;;1.48;;
78995;SDS011;68401;47.192;-1.552;2024-01-30T14:25:49;1.70;;;1.13;;
78995;SDS011;68401;47.192;-1.552;2024-01-30T14:28:14;4.45;;;1.45;;